Glendale, Oregon
Current Conditions -  °F | °C
As of 1:56 AM on Friday 31 Oct 2014 (Local Time) from KSXT Reporting Station
Moderate Fog Moderate Fog  
Wind Chill: 40°   Ceiling: 100
Heat Index: 46°   Visibility: 0.25mi
Dew Point: 46°   Wind: 15mph
Humidity: 100%   Direction: 180°S
Pressure: 29.76"   Gusts: 23mph
Location:  42.74°N, 123.42°W
Report Text: KSXT 310856Z AUTO 18013G20KT 150V220 1/4SM FG VV001 08/08 A2976 RMK AO2 RAE34 SLP061 P0001 60005 T00780078 56012
Loading
Personal Weather Stations






























Interactive Weather Map
Tropical Storm Tracking
New forecast layout! Learn more

10-Day Weather Forecast

Advertisements
Track Severe Weather on mobile